Terminal Aerodrome Forecast
Issued by NWS

Home | Current Version | Previous Version | Text Only | Print | Product List | Glossary On
Versions: 1 2 3 4 5 6 7 8 9 10 11 12 13
000
FTUS41 KLWX 191737
TAFMTN
TAF
KMTN 191737Z 1918/2018 11015KT P6SM SCT250
     FM192100 10014G23KT P6SM BKN110
     FM200100 10016G25KT P6SM -RA OVC040
     FM200200 09017G25KT P6SM RA OVC020
     FM200800 12021KT 2SM +RA OVC008
     FM200900 13019KT 3SM +RA OVC008
     FM201100 15014KT 2SM +RA OVC008
     FM201400 18011KT P6SM OVC008
     FM201700 19011G18KT P6SM BKN025=

USA.gov is the U.S. government's official web portal to all federal, state and local government web resources and services.